createdAt,value
2018-06-09T00:04:29.766Z,7.27
2018-06-09T00:10:24.963Z,5.89
2018-06-09T00:16:19.745Z,6.27
2018-06-09T00:22:14.784Z,6.64
2018-06-09T00:28:09.768Z,6.67
2018-06-09T00:34:04.766Z,7.07
2018-06-09T00:39:59.764Z,6.62
2018-06-09T00:45:54.780Z,5.7
2018-06-09T00:51:49.801Z,5.71
2018-06-09T00:57:44.756Z,5.83
2018-06-09T01:03:39.771Z,6.33
2018-06-09T01:09:35.180Z,4.97
2018-06-09T01:15:29.770Z,5.4
2018-06-09T01:21:24.775Z,4.53
2018-06-09T01:27:19.795Z,5.39
2018-06-09T01:33:14.780Z,4.75
2018-06-09T01:39:09.823Z,4.81
2018-06-09T01:45:04.787Z,5.43
2018-06-09T01:50:59.796Z,4.76
2018-06-09T01:56:54.796Z,4.5
2018-06-09T02:02:49.802Z,4.54
2018-06-09T02:08:44.803Z,4.48
2018-06-09T02:14:39.794Z,5.34
2018-06-09T02:20:34.821Z,5.05
2018-06-09T02:26:29.813Z,4.9
2018-06-09T02:32:24.839Z,4.71
2018-06-09T02:38:19.862Z,4.85
2018-06-09T02:44:14.849Z,5.41
2018-06-09T02:50:09.975Z,5.87
2018-06-09T02:56:04.822Z,5.37
2018-06-09T03:01:59.822Z,5.8
2018-06-09T03:07:54.845Z,5.15
2018-06-09T03:13:49.928Z,5.6
2018-06-09T03:19:44.835Z,5.15
2018-06-09T03:25:39.856Z,5.62
2018-06-09T03:31:34.844Z,5.83
2018-06-09T03:37:29.873Z,6.25
2018-06-09T03:43:24.924Z,6.91
2018-06-09T03:49:19.872Z,6.77
2018-06-09T03:55:14.915Z,7.15
2018-06-09T04:01:09.857Z,6.72
2018-06-09T04:07:04.889Z,6.93
2018-06-09T04:12:59.888Z,6.5
2018-06-09T04:18:54.909Z,5.86
2018-06-09T04:24:49.888Z,6.78
2018-06-09T04:30:44.871Z,5.88
2018-06-09T04:36:39.923Z,5.87
2018-06-09T04:42:34.957Z,6.13
2018-06-09T04:48:36.353Z,6.02
2018-06-09T04:54:24.963Z,7.17
2018-06-09T05:00:19.894Z,6.05
2018-06-09T05:06:14.918Z,6.63
2018-06-09T05:12:09.919Z,5.95
2018-06-09T05:18:09.868Z,7.21
2018-06-09T05:23:59.932Z,6.87
2018-06-09T05:29:54.960Z,6.59
2018-06-09T05:35:49.942Z,6.57
2018-06-09T05:41:44.946Z,5.5
2018-06-09T05:47:39.919Z,5.16
2018-06-09T05:53:34.966Z,4.99
2018-06-09T05:59:29.915Z,5.29
2018-06-09T06:05:24.962Z,4.9
2018-06-09T06:11:20.009Z,3.97
2018-06-09T06:17:14.968Z,4.93
2018-06-09T06:23:09.986Z,4.82
2018-06-09T06:29:04.993Z,4.86
2018-06-09T06:34:59.962Z,4.43
2018-06-09T06:40:54.958Z,4.63
2018-06-09T06:46:49.974Z,4.87
2018-06-09T06:52:44.951Z,4.86
2018-06-09T06:58:39.977Z,4.62
2018-06-09T07:04:35.001Z,4.83
2018-06-09T07:10:29.983Z,4.24
2018-06-09T07:16:24.981Z,4.43
2018-06-09T07:22:19.991Z,4.6
2018-06-09T07:28:14.968Z,4.32
2018-06-09T07:34:09.999Z,4.3
2018-06-09T07:40:05.045Z,4.63
2018-06-09T07:46:00.028Z,4.54
2018-06-09T07:51:54.993Z,4.6
2018-06-09T07:57:50.023Z,5.6
2018-06-09T08:03:44.991Z,4.34
2018-06-09T08:09:40.116Z,4.86
2018-06-09T08:15:35.037Z,4.54
2018-06-09T08:21:30.247Z,4.38
2018-06-09T08:27:25.039Z,4.26
2018-06-09T08:33:20.046Z,4.47
2018-06-09T08:39:15.004Z,3.88
2018-06-09T08:45:10.029Z,4.47
2018-06-09T08:51:05.064Z,4.53
2018-06-09T08:57:00.031Z,3.65
2018-06-09T09:02:55.060Z,4.28
2018-06-09T09:08:50.068Z,3.55
2018-06-09T09:14:45.050Z,4.25
2018-06-09T09:20:40.072Z,5.13
2018-06-09T09:26:35.069Z,4.62
2018-06-09T09:32:30.071Z,4.78
2018-06-09T09:38:25.045Z,4.88
2018-06-09T09:44:38.679Z,5.23
2018-06-09T09:50:15.094Z,4.33
2018-06-09T09:56:10.059Z,5.46
2018-06-09T10:02:05.075Z,4.86
2018-06-09T10:08:00.098Z,4.93
2018-06-09T10:13:55.071Z,5.64
2018-06-09T10:19:50.130Z,5.41
2018-06-09T10:25:45.109Z,5.16
2018-06-09T10:31:40.122Z,4.6
2018-06-09T10:37:35.086Z,4.85
2018-06-09T10:43:30.094Z,5.59
2018-06-09T10:49:25.096Z,4.3
2018-06-09T10:55:20.090Z,4.42
2018-06-09T11:01:15.140Z,4.94
2018-06-09T11:07:10.129Z,4.14
2018-06-09T11:13:05.138Z,4.01
2018-06-09T11:19:00.137Z,4.48
2018-06-09T11:24:55.128Z,3.64
2018-06-09T11:30:50.978Z,4.19
2018-06-09T11:36:45.105Z,3.38
2018-06-09T11:42:40.542Z,4.51
2018-06-09T11:48:35.126Z,4.14
2018-06-09T12:00:25.149Z,3.17
2018-06-09T12:06:20.335Z,3.15
2018-06-09T12:12:15.203Z,3.13
2018-06-09T12:18:10.142Z,3.85
2018-06-09T12:24:05.195Z,3.27
2018-06-09T12:30:00.240Z,2.99
2018-06-09T12:35:55.155Z,3.38
2018-06-09T12:53:40.204Z,2.43
2018-06-09T12:53:40.211Z,3.59
2018-06-09T12:53:40.269Z,2.43
2018-06-09T12:59:35.289Z,3.39
2018-06-09T13:05:30.183Z,2.76
2018-06-09T13:11:25.910Z,2.19
2018-06-09T13:17:20.442Z,3.48
2018-06-09T13:23:15.193Z,2.87
2018-06-09T13:29:10.180Z,2.57
2018-06-09T13:35:05.822Z,2.93
2018-06-09T13:41:00.200Z,2.34
2018-06-09T13:46:55.299Z,2.79
2018-06-09T13:52:50.201Z,2.38
2018-06-09T13:58:45.185Z,2.6
2018-06-09T14:04:40.537Z,2.56
2018-06-09T14:10:35.743Z,2.83
2018-06-09T14:16:30.317Z,2.28
2018-06-09T14:22:25.211Z,2.27
2018-06-09T14:28:20.727Z,2.61
2018-06-09T14:34:15.240Z,2.96
2018-06-09T14:40:11.863Z,2.8
2018-06-09T14:46:05.264Z,2.58
2018-06-09T14:52:00.245Z,2.34
2018-06-09T14:57:55.223Z,2.54
2018-06-09T15:03:50.266Z,2.69
2018-06-09T15:09:45.389Z,2.72
2018-06-09T15:15:40.404Z,2.32
2018-06-09T15:21:35.292Z,2.94
2018-06-09T15:27:30.266Z,2.61
2018-06-09T15:33:25.245Z,2.65
2018-06-09T15:39:20.276Z,2.59
2018-06-09T15:45:15.284Z,2.61
2018-06-09T15:51:10.259Z,2.8
2018-06-09T15:57:05.395Z,2.7
2018-06-09T16:03:00.308Z,2.27
2018-06-09T16:08:55.368Z,2.79
2018-06-09T16:14:50.396Z,2.42
2018-06-09T16:20:45.306Z,5.33
2018-06-09T16:26:40.312Z,2.37
2018-06-09T16:32:35.306Z,2.74
2018-06-09T16:38:30.392Z,2.62
2018-06-09T16:44:25.343Z,2.47
2018-06-09T16:50:20.321Z,2.5
2018-06-09T16:56:15.304Z,2.37
2018-06-09T17:02:10.297Z,2.43
2018-06-09T17:08:05.318Z,2.93
2018-06-09T17:14:00.339Z,2.37
2018-06-09T17:19:55.383Z,2.58
2018-06-09T17:25:50.304Z,2.72
2018-06-09T17:31:45.352Z,2.42
2018-06-09T17:37:40.311Z,2.47
2018-06-09T17:43:35.394Z,2.92
2018-06-09T17:49:30.428Z,2.74
2018-06-09T17:55:25.350Z,2.2
2018-06-09T18:01:20.337Z,4.46
2018-06-09T18:07:15.423Z,6.35
2018-06-09T18:13:10.435Z,7.42
2018-06-09T18:19:05.397Z,3.84
2018-06-09T18:25:00.399Z,3.25
2018-06-09T18:30:55.373Z,4.58
2018-06-09T18:36:50.364Z,5.72
2018-06-09T18:42:45.376Z,7.73
2018-06-09T18:48:40.388Z,2.88
2018-06-09T18:54:35.399Z,3.95
2018-06-09T19:00:30.399Z,3.6
2018-06-09T19:06:25.373Z,4.49
2018-06-09T19:12:20.471Z,5.29
2018-06-09T19:18:15.376Z,3.63
2018-06-09T19:24:10.382Z,3.87
2018-06-09T19:30:05.441Z,3.25
2018-06-09T19:36:00.402Z,3.04
2018-06-09T19:41:55.421Z,4.83
2018-06-09T19:47:50.464Z,4.37
2018-06-09T19:53:45.411Z,3.52
2018-06-09T19:59:40.428Z,4.61
2018-06-09T20:05:35.417Z,2.86
2018-06-09T20:11:30.479Z,2.89
2018-06-09T20:17:25.457Z,3.43
2018-06-09T20:23:20.491Z,3.07
2018-06-09T20:29:15.456Z,3.35
2018-06-09T20:35:10.455Z,3.36
2018-06-09T20:41:05.516Z,2.67
2018-06-09T20:47:00.431Z,3.13
2018-06-09T20:52:55.572Z,3.41
2018-06-09T20:58:50.466Z,3.06
2018-06-09T21:04:45.458Z,3.12
2018-06-09T21:10:40.485Z,3.41
2018-06-09T21:16:35.455Z,3.38
2018-06-09T21:22:30.496Z,3.67
2018-06-09T21:28:25.518Z,3.49
2018-06-09T21:34:20.462Z,3.54
2018-06-09T21:40:15.480Z,4.12
2018-06-09T21:46:10.479Z,3.58
2018-06-09T21:52:05.479Z,4.14
2018-06-09T21:58:00.525Z,4.29
2018-06-09T22:03:55.485Z,3.8
2018-06-09T22:09:50.522Z,3.67
2018-06-09T22:15:45.517Z,3.59
2018-06-09T22:21:40.536Z,3.65
2018-06-09T22:27:35.515Z,3.78
2018-06-09T22:33:30.543Z,3.53
2018-06-09T22:39:25.564Z,3.77
2018-06-09T22:45:20.588Z,4.07
2018-06-09T22:51:15.601Z,3.07
2018-06-09T22:57:10.533Z,3.04
2018-06-09T23:03:05.513Z,3.83
2018-06-09T23:09:00.551Z,3.14
2018-06-09T23:14:55.515Z,3.24
2018-06-09T23:20:50.682Z,3.5
2018-06-09T23:26:45.527Z,4.01
2018-06-09T23:32:40.569Z,4.12
2018-06-09T23:38:35.547Z,3.98
2018-06-09T23:44:30.589Z,3.33
2018-06-09T23:50:25.543Z,3.98
2018-06-09T23:56:20.561Z,4.04
